sensor_id;sensor_type;location;lat;lon;timestamp;P1;durP1;ratioP1;P2;durP2;ratioP2
1567;SDS011;777;47.156;8.326;2023-03-01T00:02:14;33.08;;;26.42;;
1567;SDS011;777;47.156;8.326;2023-03-01T00:04:41;32.13;;;24.98;;
1567;SDS011;777;47.156;8.326;2023-03-01T00:07:08;31.92;;;25.85;;
1567;SDS011;777;47.156;8.326;2023-03-01T00:09:35;32.17;;;26.27;;
1567;SDS011;777;47.156;8.326;2023-03-01T00:12:03;31.25;;;25.85;;
1567;SDS011;777;47.156;8.326;2023-03-01T00:14:32;33.13;;;26.38;;
1567;SDS011;777;47.156;8.326;2023-03-01T00:16:59;31.77;;;26.35;;
1567;SDS011;777;47.156;8.326;2023-03-01T00:19:27;31.75;;;26.27;;
1567;SDS011;777;47.156;8.326;2023-03-01T00:21:54;34.30;;;28.30;;
1567;SDS011;777;47.156;8.326;2023-03-01T00:24:21;34.13;;;26.98;;
1567;SDS011;777;47.156;8.326;2023-03-01T00:26:48;32.78;;;26.60;;
1567;SDS011;777;47.156;8.326;2023-03-01T00:29:14;33.17;;;26.52;;
1567;SDS011;777;47.156;8.326;2023-03-01T00:31:43;33.47;;;27.27;;
1567;SDS011;777;47.156;8.326;2023-03-01T00:34:10;34.08;;;26.75;;
1567;SDS011;777;47.156;8.326;2023-03-01T00:36:37;34.20;;;27.27;;
1567;SDS011;777;47.156;8.326;2023-03-01T00:39:05;34.25;;;27.23;;
1567;SDS011;777;47.156;8.326;2023-03-01T00:41:35;36.20;;;27.67;;
1567;SDS011;777;47.156;8.326;2023-03-01T00:44:03;34.20;;;27.80;;
1567;SDS011;777;47.156;8.326;2023-03-01T00:46:30;35.65;;;28.20;;
1567;SDS011;777;47.156;8.326;2023-03-01T00:48:59;33.97;;;27.88;;
1567;SDS011;777;47.156;8.326;2023-03-01T00:51:28;34.15;;;27.95;;
1567;SDS011;777;47.156;8.326;2023-03-01T00:53:56;34.55;;;28.02;;
1567;SDS011;777;47.156;8.326;2023-03-01T00:56:24;35.33;;;28.13;;
1567;SDS011;777;47.156;8.326;2023-03-01T00:58:52;36.65;;;28.45;;
1567;SDS011;777;47.156;8.326;2023-03-01T01:01:20;35.40;;;28.30;;
1567;SDS011;777;47.156;8.326;2023-03-01T01:03:49;34.55;;;28.70;;
1567;SDS011;777;47.156;8.326;2023-03-01T01:06:20;37.25;;;29.33;;
1567;SDS011;777;47.156;8.326;2023-03-01T01:08:48;35.72;;;28.38;;
1567;SDS011;777;47.156;8.326;2023-03-01T01:11:16;34.60;;;28.63;;
1567;SDS011;777;47.156;8.326;2023-03-01T01:13:44;37.08;;;29.13;;
1567;SDS011;777;47.156;8.326;2023-03-01T01:16:11;37.63;;;28.85;;
1567;SDS011;777;47.156;8.326;2023-03-01T01:18:39;36.17;;;28.70;;
1567;SDS011;777;47.156;8.326;2023-03-01T01:21:08;34.92;;;28.65;;
1567;SDS011;777;47.156;8.326;2023-03-01T01:23:38;37.60;;;29.25;;
1567;SDS011;777;47.156;8.326;2023-03-01T01:26:06;36.45;;;29.23;;
1567;SDS011;777;47.156;8.326;2023-03-01T01:28:35;36.55;;;28.95;;
1567;SDS011;777;47.156;8.326;2023-03-01T01:31:02;36.80;;;28.48;;
1567;SDS011;777;47.156;8.326;2023-03-01T01:33:29;35.20;;;29.00;;
1567;SDS011;777;47.156;8.326;2023-03-01T01:35:57;35.13;;;27.83;;
1567;SDS011;777;47.156;8.326;2023-03-01T01:38:24;36.78;;;29.70;;
1567;SDS011;777;47.156;8.326;2023-03-01T01:40:53;34.60;;;29.23;;
1567;SDS011;777;47.156;8.326;2023-03-01T01:43:21;36.42;;;29.08;;
1567;SDS011;777;47.156;8.326;2023-03-01T01:45:49;36.25;;;28.20;;
1567;SDS011;777;47.156;8.326;2023-03-01T01:48:18;33.63;;;27.38;;
1567;SDS011;777;47.156;8.326;2023-03-01T01:50:49;34.28;;;27.83;;
1567;SDS011;777;47.156;8.326;2023-03-01T01:53:20;33.85;;;27.02;;
1567;SDS011;777;47.156;8.326;2023-03-01T01:55:48;35.40;;;28.10;;
1567;SDS011;777;47.156;8.326;2023-03-01T01:58:23;35.78;;;28.10;;
1567;SDS011;777;47.156;8.326;2023-03-01T02:00:53;34.28;;;28.58;;
1567;SDS011;777;47.156;8.326;2023-03-01T02:03:22;34.22;;;28.65;;
1567;SDS011;777;47.156;8.326;2023-03-01T02:05:56;36.15;;;28.38;;
1567;SDS011;777;47.156;8.326;2023-03-01T02:08:27;36.15;;;28.92;;
1567;SDS011;777;47.156;8.326;2023-03-01T02:10:57;34.58;;;28.40;;
1567;SDS011;777;47.156;8.326;2023-03-01T02:13:27;39.00;;;29.50;;
1567;SDS011;777;47.156;8.326;2023-03-01T02:15:54;36.17;;;28.50;;
1567;SDS011;777;47.156;8.326;2023-03-01T02:18:22;35.97;;;29.55;;
1567;SDS011;777;47.156;8.326;2023-03-01T02:20:54;36.58;;;28.67;;
1567;SDS011;777;47.156;8.326;2023-03-01T02:23:28;36.47;;;28.95;;
1567;SDS011;777;47.156;8.326;2023-03-01T02:25:58;36.90;;;29.92;;
1567;SDS011;777;47.156;8.326;2023-03-01T02:28:34;38.95;;;31.70;;
1567;SDS011;777;47.156;8.326;2023-03-01T02:31:03;39.08;;;29.50;;
1567;SDS011;777;47.156;8.326;2023-03-01T02:33:50;38.85;;;29.25;;
1567;SDS011;777;47.156;8.326;2023-03-01T02:36:19;37.78;;;30.40;;
1567;SDS011;777;47.156;8.326;2023-03-01T02:38:49;37.70;;;30.75;;
1567;SDS011;777;47.156;8.326;2023-03-01T02:41:19;37.90;;;31.08;;
1567;SDS011;777;47.156;8.326;2023-03-01T02:43:49;36.97;;;30.17;;
1567;SDS011;777;47.156;8.326;2023-03-01T02:46:17;40.90;;;32.08;;
1567;SDS011;777;47.156;8.326;2023-03-01T02:48:48;38.38;;;30.98;;
1567;SDS011;777;47.156;8.326;2023-03-01T02:51:25;39.88;;;31.75;;
1567;SDS011;777;47.156;8.326;2023-03-01T02:54:07;37.05;;;30.83;;
1567;SDS011;777;47.156;8.326;2023-03-01T02:56:39;39.60;;;32.03;;
1567;SDS011;777;47.156;8.326;2023-03-01T02:59:09;41.88;;;33.08;;
1567;SDS011;777;47.156;8.326;2023-03-01T03:01:37;39.30;;;32.55;;
1567;SDS011;777;47.156;8.326;2023-03-01T03:04:07;40.08;;;32.72;;
1567;SDS011;777;47.156;8.326;2023-03-01T03:06:36;38.35;;;31.20;;
1567;SDS011;777;47.156;8.326;2023-03-01T03:09:04;40.90;;;31.58;;
1567;SDS011;777;47.156;8.326;2023-03-01T03:11:33;39.30;;;31.80;;
1567;SDS011;777;47.156;8.326;2023-03-01T03:14:02;38.88;;;32.97;;
1567;SDS011;777;47.156;8.326;2023-03-01T03:16:31;42.92;;;32.42;;
1567;SDS011;777;47.156;8.326;2023-03-01T03:18:58;39.88;;;32.97;;
1567;SDS011;777;47.156;8.326;2023-03-01T03:21:30;43.47;;;33.30;;
1567;SDS011;777;47.156;8.326;2023-03-01T03:23:57;38.08;;;31.33;;
1567;SDS011;777;47.156;8.326;2023-03-01T03:26:24;40.00;;;31.58;;
1567;SDS011;777;47.156;8.326;2023-03-01T03:28:51;40.17;;;32.35;;
1567;SDS011;777;47.156;8.326;2023-03-01T03:31:18;40.50;;;31.67;;
1567;SDS011;777;47.156;8.326;2023-03-01T03:33:47;39.38;;;31.02;;
1567;SDS011;777;47.156;8.326;2023-03-01T03:36:15;39.10;;;31.63;;
1567;SDS011;777;47.156;8.326;2023-03-01T03:38:43;38.83;;;31.83;;
1567;SDS011;777;47.156;8.326;2023-03-01T03:41:10;40.17;;;31.40;;
1567;SDS011;777;47.156;8.326;2023-03-01T03:43:39;39.13;;;31.27;;
1567;SDS011;777;47.156;8.326;2023-03-01T03:46:08;39.75;;;32.10;;
1567;SDS011;777;47.156;8.326;2023-03-01T03:48:36;39.53;;;31.25;;
1567;SDS011;777;47.156;8.326;2023-03-01T03:51:05;41.60;;;31.30;;
1567;SDS011;777;47.156;8.326;2023-03-01T03:53:33;38.63;;;31.27;;
1567;SDS011;777;47.156;8.326;2023-03-01T03:56:00;39.58;;;31.27;;
1567;SDS011;777;47.156;8.326;2023-03-01T03:58:27;38.17;;;30.77;;
1567;SDS011;777;47.156;8.326;2023-03-01T04:00:55;39.25;;;31.30;;
1567;SDS011;777;47.156;8.326;2023-03-01T04:03:23;40.35;;;31.75;;
1567;SDS011;777;47.156;8.326;2023-03-01T04:05:52;42.03;;;31.15;;
1567;SDS011;777;47.156;8.326;2023-03-01T04:08:21;38.70;;;31.25;;
1567;SDS011;777;47.156;8.326;2023-03-01T04:10:50;42.42;;;32.88;;
1567;SDS011;777;47.156;8.326;2023-03-01T04:13:19;41.30;;;31.50;;
1567;SDS011;777;47.156;8.326;2023-03-01T04:15:48;40.03;;;31.50;;
1567;SDS011;777;47.156;8.326;2023-03-01T04:18:16;38.53;;;30.98;;
1567;SDS011;777;47.156;8.326;2023-03-01T04:20:44;42.28;;;31.65;;
1567;SDS011;777;47.156;8.326;2023-03-01T04:23:13;41.53;;;31.90;;
1567;SDS011;777;47.156;8.326;2023-03-01T04:25:47;39.28;;;31.20;;
1567;SDS011;777;47.156;8.326;2023-03-01T04:28:18;41.25;;;32.35;;
1567;SDS011;777;47.156;8.326;2023-03-01T04:30:46;40.08;;;31.55;;
1567;SDS011;777;47.156;8.326;2023-03-01T04:33:13;40.17;;;31.25;;
1567;SDS011;777;47.156;8.326;2023-03-01T04:35:40;41.83;;;32.25;;
1567;SDS011;777;47.156;8.326;2023-03-01T04:38:07;41.30;;;31.00;;
1567;SDS011;777;47.156;8.326;2023-03-01T04:40:35;40.17;;;31.48;;
1567;SDS011;777;47.156;8.326;2023-03-01T04:43:04;40.03;;;31.20;;
1567;SDS011;777;47.156;8.326;2023-03-01T04:45:31;39.42;;;31.20;;
1567;SDS011;777;47.156;8.326;2023-03-01T04:47:59;39.22;;;30.98;;
1567;SDS011;777;47.156;8.326;2023-03-01T04:50:26;39.78;;;31.40;;
1567;SDS011;777;47.156;8.326;2023-03-01T04:52:53;41.90;;;31.73;;
1567;SDS011;777;47.156;8.326;2023-03-01T04:55:24;37.85;;;29.73;;
1567;SDS011;777;47.156;8.326;2023-03-01T04:57:52;39.90;;;30.48;;
1567;SDS011;777;47.156;8.326;2023-03-01T05:00:21;43.25;;;32.20;;
1567;SDS011;777;47.156;8.326;2023-03-01T05:06:36;39.45;;;31.35;;
1567;SDS011;777;47.156;8.326;2023-03-01T05:09:03;40.13;;;30.23;;
1567;SDS011;777;47.156;8.326;2023-03-01T05:11:30;39.33;;;30.60;;
1567;SDS011;777;47.156;8.326;2023-03-01T05:14:01;41.53;;;30.77;;
1567;SDS011;777;47.156;8.326;2023-03-01T05:16:29;41.05;;;31.23;;
1567;SDS011;777;47.156;8.326;2023-03-01T05:18:57;40.65;;;30.10;;
1567;SDS011;777;47.156;8.326;2023-03-01T05:21:24;41.67;;;30.48;;
1567;SDS011;777;47.156;8.326;2023-03-01T05:23:51;40.38;;;30.48;;
1567;SDS011;777;47.156;8.326;2023-03-01T05:26:19;37.10;;;29.33;;
1567;SDS011;777;47.156;8.326;2023-03-01T05:28:52;40.40;;;30.52;;
1567;SDS011;777;47.156;8.326;2023-03-01T05:31:23;38.53;;;30.13;;
1567;SDS011;777;47.156;8.326;2023-03-01T05:33:52;38.35;;;29.70;;
1567;SDS011;777;47.156;8.326;2023-03-01T05:36:19;40.17;;;30.17;;
1567;SDS011;777;47.156;8.326;2023-03-01T05:38:45;41.45;;;30.70;;
1567;SDS011;777;47.156;8.326;2023-03-01T05:41:13;39.75;;;30.40;;
1567;SDS011;777;47.156;8.326;2023-03-01T05:43:41;39.58;;;30.02;;
1567;SDS011;777;47.156;8.326;2023-03-01T05:46:10;39.42;;;30.60;;
1567;SDS011;777;47.156;8.326;2023-03-01T05:48:38;39.28;;;30.00;;
1567;SDS011;777;47.156;8.326;2023-03-01T05:51:06;38.28;;;28.35;;
1567;SDS011;777;47.156;8.326;2023-03-01T05:53:33;40.95;;;30.77;;
1567;SDS011;777;47.156;8.326;2023-03-01T05:56:02;38.47;;;28.08;;
1567;SDS011;777;47.156;8.326;2023-03-01T05:58:30;38.65;;;28.55;;
1567;SDS011;777;47.156;8.326;2023-03-01T06:00:58;39.35;;;28.75;;
1567;SDS011;777;47.156;8.326;2023-03-01T06:03:25;38.97;;;29.27;;
1567;SDS011;777;47.156;8.326;2023-03-01T06:05:55;36.30;;;28.40;;
1567;SDS011;777;47.156;8.326;2023-03-01T06:08:23;39.75;;;29.35;;
1567;SDS011;777;47.156;8.326;2023-03-01T06:10:52;38.25;;;29.52;;
1567;SDS011;777;47.156;8.326;2023-03-01T06:13:19;40.75;;;30.88;;
1567;SDS011;777;47.156;8.326;2023-03-01T06:15:46;37.75;;;28.48;;
1567;SDS011;777;47.156;8.326;2023-03-01T06:18:13;37.58;;;28.25;;
1567;SDS011;777;47.156;8.326;2023-03-01T06:20:40;37.97;;;29.63;;
1567;SDS011;777;47.156;8.326;2023-03-01T06:23:07;38.00;;;28.85;;
1567;SDS011;777;47.156;8.326;2023-03-01T06:25:35;38.92;;;29.33;;
1567;SDS011;777;47.156;8.326;2023-03-01T06:28:03;36.10;;;28.33;;
1567;SDS011;777;47.156;8.326;2023-03-01T06:30:30;39.88;;;29.30;;
1567;SDS011;777;47.156;8.326;2023-03-01T06:32:57;37.92;;;29.10;;
1567;SDS011;777;47.156;8.326;2023-03-01T06:35:26;38.78;;;28.73;;
1567;SDS011;777;47.156;8.326;2023-03-01T06:37:57;36.58;;;28.35;;
1567;SDS011;777;47.156;8.326;2023-03-01T06:40:26;37.33;;;28.10;;
1567;SDS011;777;47.156;8.326;2023-03-01T06:42:54;41.25;;;28.20;;
1567;SDS011;777;47.156;8.326;2023-03-01T06:45:21;39.35;;;30.08;;
1567;SDS011;777;47.156;8.326;2023-03-01T06:47:48;35.28;;;27.98;;
1567;SDS011;777;47.156;8.326;2023-03-01T06:50:16;38.70;;;28.90;;
1567;SDS011;777;47.156;8.326;2023-03-01T06:52:44;36.72;;;29.83;;
1567;SDS011;777;47.156;8.326;2023-03-01T06:55:11;36.72;;;28.55;;
1567;SDS011;777;47.156;8.326;2023-03-01T06:57:38;35.67;;;27.20;;
1567;SDS011;777;47.156;8.326;2023-03-01T07:00:07;37.35;;;29.20;;
1567;SDS011;777;47.156;8.326;2023-03-01T07:02:35;38.42;;;29.13;;
1567;SDS011;777;47.156;8.326;2023-03-01T07:05:02;39.65;;;30.33;;
1567;SDS011;777;47.156;8.326;2023-03-01T07:07:29;38.67;;;28.77;;
1567;SDS011;777;47.156;8.326;2023-03-01T07:09:56;34.50;;;28.40;;
1567;SDS011;777;47.156;8.326;2023-03-01T07:12:23;37.78;;;28.27;;
1567;SDS011;777;47.156;8.326;2023-03-01T07:14:50;39.53;;;29.17;;
1567;SDS011;777;47.156;8.326;2023-03-01T07:17:19;37.40;;;28.88;;
1567;SDS011;777;47.156;8.326;2023-03-01T07:19:46;35.83;;;28.15;;
1567;SDS011;777;47.156;8.326;2023-03-01T07:22:13;40.83;;;29.15;;
1567;SDS011;777;47.156;8.326;2023-03-01T07:24:40;37.17;;;28.52;;
1567;SDS011;777;47.156;8.326;2023-03-01T07:27:07;36.55;;;27.45;;
1567;SDS011;777;47.156;8.326;2023-03-01T07:29:34;36.15;;;27.83;;
1567;SDS011;777;47.156;8.326;2023-03-01T07:32:01;36.28;;;27.55;;
1567;SDS011;777;47.156;8.326;2023-03-01T07:34:30;37.17;;;27.27;;
1567;SDS011;777;47.156;8.326;2023-03-01T07:36:57;37.13;;;27.85;;
1567;SDS011;777;47.156;8.326;2023-03-01T07:39:24;36.92;;;27.90;;
1567;SDS011;777;47.156;8.326;2023-03-01T07:41:51;37.90;;;27.77;;
1567;SDS011;777;47.156;8.326;2023-03-01T07:44:21;38.78;;;28.17;;
1567;SDS011;777;47.156;8.326;2023-03-01T07:46:48;37.17;;;27.38;;
1567;SDS011;777;47.156;8.326;2023-03-01T07:49:16;33.65;;;26.42;;
1567;SDS011;777;47.156;8.326;2023-03-01T07:51:44;38.35;;;28.38;;
1567;SDS011;777;47.156;8.326;2023-03-01T07:54:11;34.80;;;25.75;;
1567;SDS011;777;47.156;8.326;2023-03-01T07:56:38;38.70;;;28.40;;
1567;SDS011;777;47.156;8.326;2023-03-01T07:59:06;36.58;;;27.77;;
1567;SDS011;777;47.156;8.326;2023-03-01T08:01:33;37.08;;;27.50;;
1567;SDS011;777;47.156;8.326;2023-03-01T08:04:00;38.20;;;28.73;;
1567;SDS011;777;47.156;8.326;2023-03-01T08:06:27;40.15;;;28.45;;
1567;SDS011;777;47.156;8.326;2023-03-01T08:08:55;37.75;;;29.10;;
1567;SDS011;777;47.156;8.326;2023-03-01T08:11:23;36.72;;;27.13;;
1567;SDS011;777;47.156;8.326;2023-03-01T08:13:50;39.60;;;28.75;;
1567;SDS011;777;47.156;8.326;2023-03-01T08:16:17;39.70;;;27.98;;
1567;SDS011;777;47.156;8.326;2023-03-01T08:18:44;38.75;;;28.67;;
1567;SDS011;777;47.156;8.326;2023-03-01T08:21:12;38.65;;;27.63;;
1567;SDS011;777;47.156;8.326;2023-03-01T08:23:40;38.05;;;28.30;;
1567;SDS011;777;47.156;8.326;2023-03-01T08:26:10;38.22;;;27.70;;
1567;SDS011;777;47.156;8.326;2023-03-01T08:28:39;38.35;;;28.15;;
1567;SDS011;777;47.156;8.326;2023-03-01T08:31:13;37.20;;;27.35;;
1567;SDS011;777;47.156;8.326;2023-03-01T08:33:41;39.08;;;28.30;;
1567;SDS011;777;47.156;8.326;2023-03-01T08:36:09;41.15;;;29.27;;
1567;SDS011;777;47.156;8.326;2023-03-01T08:38:36;37.20;;;28.08;;
1567;SDS011;777;47.156;8.326;2023-03-01T08:41:03;41.47;;;28.20;;
1567;SDS011;777;47.156;8.326;2023-03-01T08:43:31;37.15;;;27.52;;
1567;SDS011;777;47.156;8.326;2023-03-01T08:45:58;35.45;;;27.13;;
1567;SDS011;777;47.156;8.326;2023-03-01T08:48:27;36.88;;;27.15;;
1567;SDS011;777;47.156;8.326;2023-03-01T08:50:54;38.42;;;28.58;;
1567;SDS011;777;47.156;8.326;2023-03-01T08:53:21;35.75;;;27.38;;
1567;SDS011;777;47.156;8.326;2023-03-01T08:55:48;36.75;;;26.35;;
1567;SDS011;777;47.156;8.326;2023-03-01T08:58:15;36.20;;;26.52;;
1567;SDS011;777;47.156;8.326;2023-03-01T09:00:44;35.72;;;26.00;;
1567;SDS011;777;47.156;8.326;2023-03-01T09:03:10;37.13;;;26.75;;
1567;SDS011;777;47.156;8.326;2023-03-01T09:05:37;34.92;;;25.75;;
1567;SDS011;777;47.156;8.326;2023-03-01T09:08:04;34.38;;;24.95;;
1567;SDS011;777;47.156;8.326;2023-03-01T09:10:36;39.67;;;26.95;;
1567;SDS011;777;47.156;8.326;2023-03-01T09:13:04;36.58;;;26.10;;
1567;SDS011;777;47.156;8.326;2023-03-01T09:15:31;38.55;;;27.15;;
1567;SDS011;777;47.156;8.326;2023-03-01T09:18:00;37.22;;;26.60;;
1567;SDS011;777;47.156;8.326;2023-03-01T09:20:27;37.40;;;26.85;;
1567;SDS011;777;47.156;8.326;2023-03-01T09:22:54;35.75;;;25.67;;
1567;SDS011;777;47.156;8.326;2023-03-01T09:25:21;34.78;;;26.33;;
1567;SDS011;777;47.156;8.326;2023-03-01T09:27:50;36.33;;;26.95;;
1567;SDS011;777;47.156;8.326;2023-03-01T09:30:17;36.35;;;25.55;;
1567;SDS011;777;47.156;8.326;2023-03-01T09:32:44;37.05;;;27.02;;
1567;SDS011;777;47.156;8.326;2023-03-01T09:35:13;36.10;;;26.45;;
1567;SDS011;777;47.156;8.326;2023-03-01T09:37:40;33.15;;;24.13;;
1567;SDS011;777;47.156;8.326;2023-03-01T09:40:09;34.85;;;25.52;;
1567;SDS011;777;47.156;8.326;2023-03-01T09:42:45;35.78;;;26.20;;
1567;SDS011;777;47.156;8.326;2023-03-01T09:45:19;35.80;;;25.85;;
1567;SDS011;777;47.156;8.326;2023-03-01T09:47:52;36.65;;;25.58;;
1567;SDS011;777;47.156;8.326;2023-03-01T09:50:21;38.50;;;28.35;;
1567;SDS011;777;47.156;8.326;2023-03-01T09:52:50;34.13;;;25.98;;
1567;SDS011;777;47.156;8.326;2023-03-01T09:55:26;33.67;;;25.05;;
1567;SDS011;777;47.156;8.326;2023-03-01T09:57:59;35.60;;;25.00;;
1567;SDS011;777;47.156;8.326;2023-03-01T10:00:37;36.50;;;26.42;;
1567;SDS011;777;47.156;8.326;2023-03-01T10:03:12;36.92;;;25.52;;
1567;SDS011;777;47.156;8.326;2023-03-01T10:05:59;37.45;;;25.88;;
1567;SDS011;777;47.156;8.326;2023-03-01T10:08:33;33.47;;;25.45;;
1567;SDS011;777;47.156;8.326;2023-03-01T10:11:13;37.88;;;25.40;;
1567;SDS011;777;47.156;8.326;2023-03-01T10:13:47;35.97;;;25.45;;
1567;SDS011;777;47.156;8.326;2023-03-01T10:16:21;35.80;;;26.35;;
1567;SDS011;777;47.156;8.326;2023-03-01T10:18:55;35.95;;;26.08;;
1567;SDS011;777;47.156;8.326;2023-03-01T10:21:27;32.47;;;24.70;;
1567;SDS011;777;47.156;8.326;2023-03-01T10:23:57;32.50;;;24.92;;
1567;SDS011;777;47.156;8.326;2023-03-01T10:26:38;31.38;;;23.63;;
1567;SDS011;777;47.156;8.326;2023-03-01T10:29:11;33.65;;;24.73;;
1567;SDS011;777;47.156;8.326;2023-03-01T10:31:40;36.38;;;25.92;;
1567;SDS011;777;47.156;8.326;2023-03-01T10:34:11;33.70;;;24.30;;
1567;SDS011;777;47.156;8.326;2023-03-01T10:36:42;35.10;;;24.85;;
1567;SDS011;777;47.156;8.326;2023-03-01T10:39:11;35.85;;;24.60;;
1567;SDS011;777;47.156;8.326;2023-03-01T10:41:57;37.75;;;25.63;;
1567;SDS011;777;47.156;8.326;2023-03-01T10:44:39;31.20;;;23.52;;
1567;SDS011;777;47.156;8.326;2023-03-01T10:47:12;35.13;;;23.80;;
1567;SDS011;777;47.156;8.326;2023-03-01T10:49:51;39.13;;;25.45;;
1567;SDS011;777;47.156;8.326;2023-03-01T10:52:21;32.25;;;23.65;;
1567;SDS011;777;47.156;8.326;2023-03-01T10:54:51;35.47;;;25.77;;
1567;SDS011;777;47.156;8.326;2023-03-01T10:57:24;31.20;;;24.35;;
1567;SDS011;777;47.156;8.326;2023-03-01T11:00:02;35.78;;;24.73;;
1567;SDS011;777;47.156;8.326;2023-03-01T11:02:42;34.60;;;23.92;;
1567;SDS011;777;47.156;8.326;2023-03-01T11:05:15;33.72;;;24.27;;
1567;SDS011;777;47.156;8.326;2023-03-01T11:07:49;32.55;;;24.50;;
1567;SDS011;777;47.156;8.326;2023-03-01T11:10:19;33.80;;;24.20;;
1567;SDS011;777;47.156;8.326;2023-03-01T11:12:48;31.40;;;22.65;;
1567;SDS011;777;47.156;8.326;2023-03-01T11:15:23;34.60;;;23.25;;
1567;SDS011;777;47.156;8.326;2023-03-01T11:17:53;36.15;;;23.83;;
1567;SDS011;777;47.156;8.326;2023-03-01T11:20:24;32.63;;;23.13;;
1567;SDS011;777;47.156;8.326;2023-03-01T11:22:58;34.33;;;24.58;;
1567;SDS011;777;47.156;8.326;2023-03-01T11:25:30;33.80;;;23.65;;
1567;SDS011;777;47.156;8.326;2023-03-01T11:28:01;33.38;;;23.85;;
1567;SDS011;777;47.156;8.326;2023-03-01T11:30:31;32.67;;;23.55;;
1567;SDS011;777;47.156;8.326;2023-03-01T11:33:10;31.63;;;22.90;;
1567;SDS011;777;47.156;8.326;2023-03-01T11:35:45;35.70;;;23.88;;
1567;SDS011;777;47.156;8.326;2023-03-01T11:38:20;33.42;;;23.60;;
1567;SDS011;777;47.156;8.326;2023-03-01T11:40:50;29.65;;;21.60;;
1567;SDS011;777;47.156;8.326;2023-03-01T11:43:26;28.02;;;21.52;;
1567;SDS011;777;47.156;8.326;2023-03-01T11:46:08;28.33;;;21.95;;
1567;SDS011;777;47.156;8.326;2023-03-01T11:48:57;31.65;;;22.98;;
1567;SDS011;777;47.156;8.326;2023-03-01T11:51:41;28.02;;;21.52;;
1567;SDS011;777;47.156;8.326;2023-03-01T11:54:20;31.02;;;22.08;;
1567;SDS011;777;47.156;8.326;2023-03-01T11:56:55;31.88;;;22.63;;
1567;SDS011;777;47.156;8.326;2023-03-01T11:59:34;31.33;;;23.20;;
1567;SDS011;777;47.156;8.326;2023-03-01T12:02:26;31.67;;;23.30;;
1567;SDS011;777;47.156;8.326;2023-03-01T12:05:20;31.20;;;23.58;;
1567;SDS011;777;47.156;8.326;2023-03-01T12:08:00;32.20;;;24.17;;
1567;SDS011;777;47.156;8.326;2023-03-01T12:10:36;33.33;;;24.20;;
1567;SDS011;777;47.156;8.326;2023-03-01T12:13:18;33.53;;;24.80;;
1567;SDS011;777;47.156;8.326;2023-03-01T12:16:02;34.80;;;24.88;;
1567;SDS011;777;47.156;8.326;2023-03-01T12:18:44;35.65;;;25.42;;
1567;SDS011;777;47.156;8.326;2023-03-01T12:21:25;32.10;;;22.63;;
1567;SDS011;777;47.156;8.326;2023-03-01T12:24:06;34.15;;;24.92;;
1567;SDS011;777;47.156;8.326;2023-03-01T12:26:59;31.13;;;23.42;;
1567;SDS011;777;47.156;8.326;2023-03-01T12:29:49;32.25;;;23.83;;
1567;SDS011;777;47.156;8.326;2023-03-01T12:32:28;33.78;;;24.13;;
1567;SDS011;777;47.156;8.326;2023-03-01T12:37:54;33.60;;;24.85;;
1567;SDS011;777;47.156;8.326;2023-03-01T12:40:31;32.80;;;24.33;;
1567;SDS011;777;47.156;8.326;2023-03-01T12:43:10;29.58;;;22.60;;
1567;SDS011;777;47.156;8.326;2023-03-01T12:45:54;35.13;;;22.88;;
1567;SDS011;777;47.156;8.326;2023-03-01T12:48:33;29.05;;;22.02;;
1567;SDS011;777;47.156;8.326;2023-03-01T12:51:07;33.33;;;23.75;;
1567;SDS011;777;47.156;8.326;2023-03-01T12:53:39;32.13;;;24.00;;
1567;SDS011;777;47.156;8.326;2023-03-01T12:56:08;30.30;;;22.33;;
1567;SDS011;777;47.156;8.326;2023-03-01T12:58:41;34.78;;;24.50;;
1567;SDS011;777;47.156;8.326;2023-03-01T13:01:22;30.45;;;22.48;;
1567;SDS011;777;47.156;8.326;2023-03-01T13:07:05;31.42;;;23.58;;
1567;SDS011;777;47.156;8.326;2023-03-01T13:09:43;32.03;;;23.75;;
1567;SDS011;777;47.156;8.326;2023-03-01T13:15:25;29.65;;;21.77;;
1567;SDS011;777;47.156;8.326;2023-03-01T13:17:57;33.30;;;23.35;;
1567;SDS011;777;47.156;8.326;2023-03-01T13:20:26;31.95;;;23.40;;
1567;SDS011;777;47.156;8.326;2023-03-01T13:23:01;30.10;;;23.00;;
1567;SDS011;777;47.156;8.326;2023-03-01T13:28:47;32.45;;;23.98;;
1567;SDS011;777;47.156;8.326;2023-03-01T13:43:29;33.13;;;24.52;;
1567;SDS011;777;47.156;8.326;2023-03-01T13:45:57;34.08;;;25.40;;
1567;SDS011;777;47.156;8.326;2023-03-01T13:48:26;33.83;;;25.05;;
1567;SDS011;777;47.156;8.326;2023-03-01T13:50:57;34.30;;;24.13;;
1567;SDS011;777;47.156;8.326;2023-03-01T13:53:27;32.83;;;24.48;;
1567;SDS011;777;47.156;8.326;2023-03-01T13:55:58;33.28;;;24.83;;
1567;SDS011;777;47.156;8.326;2023-03-01T13:58:29;34.15;;;25.00;;
1567;SDS011;777;47.156;8.326;2023-03-01T14:00:58;32.92;;;24.80;;
1567;SDS011;777;47.156;8.326;2023-03-01T14:03:27;33.83;;;24.38;;
1567;SDS011;777;47.156;8.326;2023-03-01T14:06:01;32.45;;;24.20;;
1567;SDS011;777;47.156;8.326;2023-03-01T14:08:33;34.20;;;25.38;;
1567;SDS011;777;47.156;8.326;2023-03-01T14:11:06;34.78;;;25.05;;
1567;SDS011;777;47.156;8.326;2023-03-01T14:14:00;32.10;;;24.27;;
1567;SDS011;777;47.156;8.326;2023-03-01T14:16:49;32.40;;;25.77;;
1567;SDS011;777;47.156;8.326;2023-03-01T14:19:25;31.75;;;23.45;;
1567;SDS011;777;47.156;8.326;2023-03-01T14:22:02;33.85;;;24.58;;
1567;SDS011;777;47.156;8.326;2023-03-01T14:24:37;32.53;;;24.45;;
1567;SDS011;777;47.156;8.326;2023-03-01T14:27:09;30.50;;;22.70;;
1567;SDS011;777;47.156;8.326;2023-03-01T14:29:38;35.08;;;24.30;;
1567;SDS011;777;47.156;8.326;2023-03-01T14:32:10;33.35;;;23.30;;
1567;SDS011;777;47.156;8.326;2023-03-01T14:34:42;34.40;;;23.40;;
1567;SDS011;777;47.156;8.326;2023-03-01T14:37:14;32.03;;;23.75;;
1567;SDS011;777;47.156;8.326;2023-03-01T14:39:46;32.97;;;24.08;;
1567;SDS011;777;47.156;8.326;2023-03-01T14:42:13;35.72;;;24.55;;
1567;SDS011;777;47.156;8.326;2023-03-01T14:44:42;32.92;;;25.05;;
1567;SDS011;777;47.156;8.326;2023-03-01T14:47:12;32.13;;;23.23;;
1567;SDS011;777;47.156;8.326;2023-03-01T14:49:46;33.45;;;23.95;;
1567;SDS011;777;47.156;8.326;2023-03-01T14:52:19;32.53;;;24.30;;
1567;SDS011;777;47.156;8.326;2023-03-01T14:54:48;35.13;;;24.92;;
1567;SDS011;777;47.156;8.326;2023-03-01T14:57:19;32.20;;;23.33;;
1567;SDS011;777;47.156;8.326;2023-03-01T14:59:49;32.88;;;23.85;;
1567;SDS011;777;47.156;8.326;2023-03-01T15:02:20;32.75;;;24.00;;
1567;SDS011;777;47.156;8.326;2023-03-01T15:04:51;31.52;;;23.20;;
1567;SDS011;777;47.156;8.326;2023-03-01T15:07:23;31.52;;;23.42;;
1567;SDS011;777;47.156;8.326;2023-03-01T15:09:54;33.03;;;23.85;;
1567;SDS011;777;47.156;8.326;2023-03-01T15:12:34;34.95;;;25.52;;
1567;SDS011;777;47.156;8.326;2023-03-01T15:17:48;31.20;;;22.85;;
1567;SDS011;777;47.156;8.326;2023-03-01T15:20:20;35.72;;;23.75;;
1567;SDS011;777;47.156;8.326;2023-03-01T15:22:52;30.83;;;23.38;;
1567;SDS011;777;47.156;8.326;2023-03-01T15:25:20;31.58;;;23.92;;
1567;SDS011;777;47.156;8.326;2023-03-01T15:27:50;40.28;;;25.50;;
1567;SDS011;777;47.156;8.326;2023-03-01T15:30:20;32.88;;;24.17;;
1567;SDS011;777;47.156;8.326;2023-03-01T15:33:15;32.50;;;25.08;;
1567;SDS011;777;47.156;8.326;2023-03-01T15:35:46;32.22;;;24.48;;
1567;SDS011;777;47.156;8.326;2023-03-01T15:38:24;33.17;;;24.23;;
1567;SDS011;777;47.156;8.326;2023-03-01T15:40:57;30.83;;;23.25;;
1567;SDS011;777;47.156;8.326;2023-03-01T15:43:38;33.28;;;24.98;;
1567;SDS011;777;47.156;8.326;2023-03-01T15:48:55;33.35;;;25.40;;
1567;SDS011;777;47.156;8.326;2023-03-01T15:51:31;35.03;;;25.67;;
1567;SDS011;777;47.156;8.326;2023-03-01T15:54:02;37.28;;;27.13;;
1567;SDS011;777;47.156;8.326;2023-03-01T15:56:33;34.28;;;25.38;;